Letecké školy

Flying Academy USA

Flying Academy USA

Miami, Florida        Aktuální teplota 32 °C

Flying Academy ČR

Flying Academy ČR

Praha & Brno, Česká Republika        Aktuální teplota 26 °C

Letecká škola Flying Academy

Letecká škola Flying Academy má více než 12 let zkušeností s výcvikem profesionálních pilotů v Evropě a přes 30 let v USA. Jsme jednou z nejdynamičtěji rostoucích leteckých škol poskytujících vysoký standard leteckého výcviku v prostředí simulujícím atmosféru v aeroliniích.

  • Flying Academy je EASA certifikovaná výcviková organizace (CZ/ATO-014) a FAA certifikovaná letecká škola podle Part 141 & 61, působíme v České Republice a v USA
  • Naši instruktoři jsou současně i piloty aerolinií – získáte reálné zkušenosti pilota
  • Dostanete zdarma iPad mini při zahájení ab-initio výcvikového programu
  • Naše výcvikové kurzy jsou navrženy pro budoucí EASA a FAA soukromé a komerční piloty

Vítejte ve světě, kde práce je náš koníček! Každý v našem týmu ve Flying Academy se těší z úspěchů našich studentů. Diky skvělému zázemí, přístupu a nabídce naší letecké školy se ujistíte, že jste na správném místě k dosažení Vašich snů ve Flying Academy.

Proč si vybrat Flying Academy - přečtěte si více >>

 

Novinky

Navštivte jednu z největších leteckých škol! Přijďte na den otevřených dveří Flying Academy dne 17. září 2016!

Den otevřených dveří je nejlepší příležitost k návštěvě jedné z nejrychleji rostoucích leteckých škol poskytujících vysoký standard leteckého výcviku. Flying Academy zve všechny příznivce létání k návštěvě našich vzdělávacích zařízení. Den otevřených dveří probíhá v České republice i v USA. Pokud se zajímáte o letecký průmysl, neváhejte se k nám připojit a navštívit prostředí simulující atmosféru v aeroliniích a seznámit se s našimi zkušenými instruktory.

Přijďte v sobotu 17. září 2016 na základnu v Praze, v Brně nebo na naší novou základnu v Miami v USA. Akce se koná od 10:00 do 15:00.

Ušetřete s námi náklady na cestování. Uhradíme Vám cestovní výdaje na základny v České republice až do výše 500 EUR a až 500 USD za návštěvu základny v USA.

Cestovní výdaje budou hrazeny se zahájením jakéhokoli odborného výcviku z portfolia Flying Academy a nabídka není časově omezena. Zaregistrujte se na den otevřených dveří prostřednictvím online formuláře a zarezervujte si schůzku s jedním z našich instruktorů. Kontaktujte nás pro více informací nebo otázek ohledně dne otevřených dveří a kurzů.

celý článek >>

2.09 Flying Academy nově nabízí zkoušku z IFR angličtiny

Flying Academy byla pověřena Úřadem pro civilní letectví a nově nabízí zkoušku z IFR angličtiny. Zkouška se skládá z písemné i ústní části a probíhá následujícím způsobem:

1) Písemný test, který zahrnuje gramatiku, slovní zásobu, znalost frazeologie, letecké zkratky a porozumění kontextu obecné i letecké angličtiny. Minimální úspěšnost je 80% (48 z 60 bodů).

2) Ústní část, ke které postupují ti, kteří napíšou test na 80 a více %. Ústní část obsahuje pohovor o žadateli, poslech nahrávky a simulaci komunikace mezi pilotem a ATC.

První přezkoušení se uskuteční v úterý 2.9.2016 na základně Flying Academy v Brně, Tuřany.

Cena zkoušky z IFR angličtiny je 2 500 Kč bez DPH.

celý článek >>

Time building v Miami za neskutečnou cenu 82$ / hodinu

Time building je základem pro všechny studenty aspirující na profesionální piloty. Hlavně pro mladé studenty, kteří chtějí budovat kariéru v aerolinkách, je velice důležité mít nalétaný dostatek hodin a tím získat potřebné zkušenosti pro pozici komerčního pilota. 

Z tohoto důvodu se letecká škola Flying Academy rozhodla podpořit právě tyto mladé profesionály speciální cenou za Time building v Miami, která začíná na 82$ za hodinu pronájmu Cessny 152. Veškeré palivo je v ceně, v USA navíc neplatíte přistávací ani komunikační poplatky. Další výhodou je, že počasí v Miami je přímo předurčené k létání po celý rok. 

Naši profesionální letečtí instruktoři Vám rádi pomohou s přizpůsobením se jinému vzdušnému prostoru a místním regulacím, poradí s naplánováním cesty a dají Vám všechny potřebné rady, které potřebujete vědět při létání Time buildingu v Miami. Čtěte více.

celý článek >>

více článků

Blog

Zahraniční letecká zkušenost, kterou získáte jen s Flying Academy v Miami

Díky otevření nové pobočky Flying Academy v Miami ve Spojených státech dostalo mnoho studentů, kteří dosud znali jen evropský vzdušný prostor, příležitost vyzkoušet si výcvik dle předpisů FAA v americkém vzdušném prostoru. Díky výhodným balíčkům Time Buildingu, které Flying Academy nabízí, se pilotům s evropskou licencí veškerý nálet v Americe započítá po jejich návratu do České republiky.

Student Abdollah Mohammadpour, který se zúčastnil výcviku 0-ATPL, vysvětluje, jak tato zkušenost změnila celý jeho pohled na letecký výcvik: "Jako student, pilot se zkušenostmi pouze v neřízeném vzdušném prostoru s malým provozem, jsem se rozhodl využít příležitosti od Flying Academy a rozšířit své znalosti v USA. Po příletu do Miami na mě čekal řidič od Flying Academy, který mě odvezl do vily. Vila se nacházela jen pár minut jízdy od letiště a měla na zahradě i velký bazén. Personál Flying Academy mi se vším pomáhal stejně jako v Praze."

pokračovat ve čtení >>

více článků

0 - 500 hodin

Flying Academy s.r.o.
Beranových 130
Praha 9 - Letnany
199 00

800 884 888

+420 228 882 444

www.flyingacademy.cz
pilot@FlyingAcademy.cz

facebook.com/FlyingAcademy
twitter.com/FlyingAcademy
youtube.com/FlyingAcademy

Aktuální počasí

LKTB

LKTB 261630Z 14007KT 120V180 CAVOK 26/12 Q1021 NOSIG

LKPR

LKPR 261630Z 15007KT CAVOK 29/11 Q1019 NOSIG

LKKV

LKKV 261630Z 14004KT 110V180 CAVOK 28/11 Q1020

KTMB

KTMB 261653Z 11012KT 10SM FEW033 32/25 A2992 RMK AO2 SLP132 T03170250

Začněte program 0-500 a získejte 500 letových hodin s Flying Academy Získejte více informací